Time;durP1;ratioP1;P1;durP2;ratioP2;P2;SDS_P1;SDS_P2;PMS_P1;PMS_P2;Temp;Humidity;BMP_temperature;BMP_pressure;BME280_temperature;BME280_humidity;BME280_pressure;Samples;Min_cycle;Max_cycle;Signal;HPM_P1;HPM_P2
2022/05/01 00:01:31;;;;;;;22.70;18.97;;;;;;;;;;5072248;28;20400;-84
2022/05/01 00:03:57;;;;;;;26.67;20.60;;;;;;;;;;5068849;28;20449;-85
2022/05/01 00:06:23;;;;;;;23.07;19.47;;;;;;;;;;5062585;28;20402;-85
2022/05/01 00:08:49;;;;;;;26.73;19.30;;;;;;;;;;5062707;28;20413;-85
2022/05/01 00:11:15;;;;;;;23.47;19.37;;;;;;;;;;5070923;28;20402;-84
2022/05/01 00:13:42;;;;;;;27.00;20.20;;;;;;;;;;5071812;28;20885;-85
2022/05/01 00:16:08;;;;;;;25.87;20.57;;;;;;;;;;5064037;28;20409;-85
2022/05/01 00:18:34;;;;;;;26.13;20.07;;;;;;;;;;5044107;28;20452;-85
2022/05/01 00:21:00;;;;;;;24.97;21.90;;;;;;;;;;5044446;28;20409;-85
2022/05/01 00:23:27;;;;;;;25.00;21.73;;;;;;;;;;5061642;28;20475;-85
2022/05/01 00:25:53;;;;;;;28.30;21.70;;;;;;;;;;5062470;28;20409;-85
2022/05/01 00:28:19;;;;;;;25.70;21.20;;;;;;;;;;5062242;28;20773;-85
2022/05/01 00:30:45;;;;;;;27.57;23.03;;;;;;;;;;5062283;28;20416;-85
2022/05/01 00:38:41;;;;;;;24.33;20.00;;;;;;;;;;5061420;28;20449;-85
2022/05/01 00:41:07;;;;;;;25.07;20.13;;;;;;;;;;5061445;28;20394;-85
2022/05/01 00:43:34;;;;;;;25.33;19.70;;;;;;;;;;5043681;28;20785;-85
2022/05/01 00:46:00;;;;;;;23.53;20.30;;;;;;;;;;5070059;28;20425;-83
2022/05/01 00:48:26;;;;;;;25.87;19.60;;;;;;;;;;5062507;28;20489;-84
2022/05/01 00:50:53;;;;;;;24.93;20.80;;;;;;;;;;5061803;28;20409;-85
2022/05/01 00:53:19;;;;;;;28.17;21.97;;;;;;;;;;5061575;28;20448;-85
2022/05/01 00:55:46;;;;;;;24.07;19.53;;;;;;;;;;5068885;28;20421;-84
2022/05/01 00:58:13;;;;;;;27.10;20.97;;;;;;;;;;5071031;28;20473;-83
2022/05/01 01:00:39;;;;;;;29.03;21.60;;;;;;;;;;5070465;28;20393;-84
2022/05/01 01:03:05;;;;;;;25.47;21.53;;;;;;;;;;5071505;28;20468;-83
2022/05/01 01:05:31;;;;;;;27.03;21.50;;;;;;;;;;5048974;28;20430;-85
2022/05/01 01:08:02;;;;;;;25.47;20.23;;;;;;;;;;5046018;28;20410;-84
2022/05/01 01:10:28;;;;;;;24.40;20.27;;;;;;;;;;5047496;28;20880;-85
2022/05/01 01:12:54;;;;;;;23.40;18.80;;;;;;;;;;5024237;28;20414;-85
2022/05/01 01:15:20;;;;;;;23.03;18.70;;;;;;;;;;5040879;28;20474;-85
2022/05/01 01:17:52;;;;;;;24.30;19.80;;;;;;;;;;5040915;28;20450;-85
2022/05/01 01:20:24;;;;;;;23.73;18.20;;;;;;;;;;5023287;28;20986;-85
2022/05/01 01:22:51;;;;;;;24.40;18.43;;;;;;;;;;5040691;28;20435;-85
2022/05/01 01:25:19;;;;;;;23.37;18.87;;;;;;;;;;5023003;28;20398;-85
2022/05/01 01:27:46;;;;;;;21.87;18.70;;;;;;;;;;5040658;28;20759;-85
2022/05/01 01:32:57;;;;;;;24.80;19.07;;;;;;;;;;5040517;28;20444;-85
2022/05/01 01:35:24;;;;;;;22.90;18.30;;;;;;;;;;5040810;28;20431;-85
2022/05/01 01:37:54;;;;;;;23.77;18.77;;;;;;;;;;5023052;28;20454;-85
2022/05/01 01:40:24;;;;;;;23.97;19.20;;;;;;;;;;5040233;28;20415;-85
2022/05/01 01:42:51;;;;;;;25.37;20.13;;;;;;;;;;5039946;28;20446;-85
2022/05/01 01:45:17;;;;;;;25.87;20.57;;;;;;;;;;5040236;28;20418;-85
2022/05/01 01:47:44;;;;;;;25.30;20.33;;;;;;;;;;5043620;28;20898;-83
2022/05/01 01:50:12;;;;;;;26.37;20.80;;;;;;;;;;5023223;28;20417;-85
2022/05/01 01:52:38;;;;;;;25.40;20.00;;;;;;;;;;5040460;28;20422;-85
2022/05/01 01:55:05;;;;;;;27.77;21.17;;;;;;;;;;5040479;28;20477;-85
2022/05/01 01:57:31;;;;;;;31.20;23.77;;;;;;;;;;5039904;28;20454;-85
2022/05/01 01:59:57;;;;;;;30.57;22.77;;;;;;;;;;5040553;28;20407;-85
2022/05/01 02:02:23;;;;;;;26.83;21.53;;;;;;;;;;5039858;28;20395;-85
2022/05/01 02:04:49;;;;;;;31.60;23.20;;;;;;;;;;5039389;28;20450;-85
2022/05/01 02:07:15;;;;;;;29.77;22.33;;;;;;;;;;5040430;28;20402;-85
2022/05/01 02:09:41;;;;;;;27.47;22.80;;;;;;;;;;5022403;28;20922;-85
2022/05/01 02:12:08;;;;;;;30.40;22.80;;;;;;;;;;5039795;28;20414;-85
2022/05/01 02:14:35;;;;;;;35.60;24.13;;;;;;;;;;5021976;28;20430;-85
2022/05/01 02:17:04;;;;;;;34.30;26.00;;;;;;;;;;5022012;28;20798;-85
2022/05/01 02:19:30;;;;;;;28.47;24.40;;;;;;;;;;5039845;28;20405;-85
2022/05/01 02:21:57;;;;;;;31.20;25.67;;;;;;;;;;5040081;28;20410;-85
2022/05/01 02:24:25;;;;;;;30.30;24.27;;;;;;;;;;5065948;22;20848;-80
2022/05/01 02:26:52;;;;;;;32.43;25.37;;;;;;;;;;5043879;28;20450;-81
2022/05/01 02:29:18;;;;;;;32.77;24.60;;;;;;;;;;5064435;28;20409;-81
2022/05/01 02:31:45;;;;;;;33.60;23.97;;;;;;;;;;5067793;28;20402;-81
2022/05/01 02:34:12;;;;;;;32.30;25.83;;;;;;;;;;5067799;28;20398;-81
2022/05/01 02:36:38;;;;;;;35.37;27.27;;;;;;;;;;5067350;28;20422;-81
2022/05/01 02:39:05;;;;;;;31.90;25.00;;;;;;;;;;5067883;28;20453;-81
2022/05/01 02:41:31;;;;;;;33.57;25.77;;;;;;;;;;5068244;28;20398;-81
2022/05/01 02:43:58;;;;;;;31.03;23.90;;;;;;;;;;5067350;28;20497;-81
2022/05/01 02:46:27;;;;;;;32.77;25.20;;;;;;;;;;5067260;28;20429;-81
2022/05/01 02:48:53;;;;;;;32.40;25.37;;;;;;;;;;5068280;28;20752;-81
2022/05/01 02:51:20;;;;;;;35.93;26.07;;;;;;;;;;5067851;28;20406;-81
2022/05/01 02:53:46;;;;;;;35.10;28.37;;;;;;;;;;5067365;28;20465;-81
2022/05/01 02:56:12;;;;;;;36.03;27.77;;;;;;;;;;5068157;28;20421;-81
2022/05/01 02:58:38;;;;;;;38.07;29.13;;;;;;;;;;5070809;28;20821;-81
2022/05/01 03:01:04;;;;;;;36.63;27.50;;;;;;;;;;5073242;28;20400;-80
2022/05/01 03:03:30;;;;;;;38.23;28.20;;;;;;;;;;5071560;28;20394;-81
2022/05/01 03:05:58;;;;;;;36.43;27.13;;;;;;;;;;5067198;28;20429;-80
2022/05/01 03:08:24;;;;;;;41.27;28.20;;;;;;;;;;5068031;28;20754;-81
2022/05/01 03:10:50;;;;;;;36.93;26.50;;;;;;;;;;5067902;28;20470;-81
2022/05/01 03:13:17;;;;;;;37.23;27.27;;;;;;;;;;5068545;28;20440;-81
2022/05/01 03:15:43;;;;;;;36.90;28.60;;;;;;;;;;5067526;28;20866;-81
2022/05/01 03:23:39;;;;;;;38.63;28.10;;;;;;;;;;5071527;28;20389;-81
2022/05/01 03:26:05;;;;;;;37.67;28.23;;;;;;;;;;5071376;28;20507;-81
2022/05/01 03:28:31;;;;;;;36.40;26.70;;;;;;;;;;5071778;28;20397;-81
2022/05/01 03:30:57;;;;;;;37.73;28.10;;;;;;;;;;5071689;28;20417;-80
2022/05/01 03:33:25;;;;;;;39.60;28.73;;;;;;;;;;5071332;28;20897;-81
2022/05/01 03:35:51;;;;;;;41.00;28.50;;;;;;;;;;5053473;28;20437;-81
2022/05/01 03:38:17;;;;;;;37.53;28.03;;;;;;;;;;5071507;28;20548;-81
2022/05/01 03:40:47;;;;;;;45.10;29.57;;;;;;;;;;5071373;28;20398;-81
2022/05/01 03:43:17;;;;;;;36.33;27.50;;;;;;;;;;5071726;28;20508;-81
2022/05/01 03:45:43;;;;;;;39.97;27.00;;;;;;;;;;5071022;28;20464;-81
2022/05/01 03:48:11;;;;;;;35.53;27.73;;;;;;;;;;5071589;28;20401;-81
2022/05/01 03:50:37;;;;;;;39.77;26.53;;;;;;;;;;5070686;28;20408;-81
2022/05/01 03:53:04;;;;;;;37.83;27.90;;;;;;;;;;5069537;28;20398;-81
2022/05/01 03:55:31;;;;;;;38.13;28.00;;;;;;;;;;5069993;28;20432;-81
2022/05/01 03:57:58;;;;;;;32.17;25.97;;;;;;;;;;5070371;28;20468;-79
2022/05/01 04:00:24;;;;;;;35.33;26.93;;;;;;;;;;5070048;28;20393;-81
2022/05/01 04:02:52;;;;;;;31.03;23.30;;;;;;;;;;5066401;28;20404;-81
2022/05/01 04:05:18;;;;;;;32.90;24.73;;;;;;;;;;5049446;28;20425;-80
2022/05/01 04:07:44;;;;;;;35.13;24.37;;;;;;;;;;5066169;28;20441;-80
2022/05/01 04:10:10;;;;;;;33.40;25.00;;;;;;;;;;5050033;28;20467;-80
2022/05/01 04:12:37;;;;;;;40.67;26.27;;;;;;;;;;5065510;28;20803;-80
2022/05/01 04:15:07;;;;;;;31.30;24.73;;;;;;;;;;5067139;28;20460;-82
2022/05/01 04:17:33;;;;;;;34.57;25.47;;;;;;;;;;5067806;28;20449;-81
2022/05/01 04:19:59;;;;;;;33.00;24.63;;;;;;;;;;5052228;28;20422;-81
2022/05/01 04:22:25;;;;;;;34.43;23.63;;;;;;;;;;5069467;28;20918;-81
2022/05/01 04:24:51;;;;;;;30.53;23.17;;;;;;;;;;5068813;28;20437;-81
2022/05/01 04:27:18;;;;;;;32.30;24.90;;;;;;;;;;5052424;28;20421;-81
2022/05/01 04:29:44;;;;;;;31.70;24.97;;;;;;;;;;5069661;28;20428;-81
2022/05/01 04:32:10;;;;;;;33.33;24.40;;;;;;;;;;5070040;28;20421;-81
2022/05/01 04:34:36;;;;;;;33.00;25.50;;;;;;;;;;5069529;28;20536;-81
2022/05/01 04:37:03;;;;;;;35.70;26.03;;;;;;;;;;5069131;28;20398;-81
2022/05/01 04:39:30;;;;;;;37.50;26.83;;;;;;;;;;5070135;28;20406;-80
2022/05/01 04:41:56;;;;;;;34.20;25.40;;;;;;;;;;5069253;28;20409;-81
2022/05/01 04:44:22;;;;;;;32.97;24.10;;;;;;;;;;5069364;28;20409;-81
2022/05/01 04:46:49;;;;;;;39.30;28.30;;;;;;;;;;5070326;28;20489;-81
2022/05/01 04:49:18;;;;;;;40.83;29.40;;;;;;;;;;5069695;28;20464;-81
2022/05/01 04:51:45;;;;;;;35.53;26.47;;;;;;;;;;5069753;28;20410;-81
2022/05/01 04:54:11;;;;;;;36.10;26.10;;;;;;;;;;5069259;28;20410;-81
2022/05/01 04:59:22;;;;;;;36.50;26.03;;;;;;;;;;5069416;28;20397;-81
2022/05/01 05:01:48;;;;;;;35.80;26.97;;;;;;;;;;5069818;28;20390;-81
2022/05/01 05:04:14;;;;;;;39.97;27.50;;;;;;;;;;5069273;28;20473;-81
2022/05/01 05:06:40;;;;;;;35.90;27.30;;;;;;;;;;5069066;28;20417;-81
2022/05/01 05:11:51;;;;;;;35.33;24.97;;;;;;;;;;5069257;28;20384;-81
2022/05/01 05:14:17;;;;;;;38.60;26.57;;;;;;;;;;5069380;28;20393;-82
2022/05/01 05:16:43;;;;;;;37.80;28.00;;;;;;;;;;5068553;28;20414;-81
2022/05/01 05:19:09;;;;;;;39.40;27.40;;;;;;;;;;5069480;28;20467;-81
2022/05/01 05:21:35;;;;;;;44.70;29.10;;;;;;;;;;5068989;28;20443;-82
2022/05/01 05:24:01;;;;;;;41.33;27.33;;;;;;;;;;5068529;28;20436;-82
2022/05/01 05:26:27;;;;;;;43.13;28.40;;;;;;;;;;5068630;28;20449;-81
2022/05/01 05:28:53;;;;;;;43.70;29.30;;;;;;;;;;5068708;28;20465;-82
2022/05/01 05:31:19;;;;;;;42.13;28.87;;;;;;;;;;5068974;28;20420;-82
2022/05/01 05:33:45;;;;;;;41.03;27.60;;;;;;;;;;5068329;28;20488;-81
2022/05/01 05:36:11;;;;;;;39.90;29.17;;;;;;;;;;5069018;28;20429;-81
2022/05/01 05:38:38;;;;;;;43.33;29.40;;;;;;;;;;5070363;28;20547;-81
2022/05/01 05:41:05;;;;;;;45.20;30.47;;;;;;;;;;5076976;28;20412;-81
2022/05/01 05:43:31;;;;;;;41.40;29.63;;;;;;;;;;5077012;28;20406;-80
2022/05/01 05:45:57;;;;;;;40.90;27.77;;;;;;;;;;5076343;28;20410;-80
2022/05/01 05:48:23;;;;;;;41.00;27.83;;;;;;;;;;5059696;28;20409;-80
2022/05/01 05:50:49;;;;;;;42.53;28.17;;;;;;;;;;5076490;28;20457;-81
2022/05/01 05:53:15;;;;;;;43.83;30.17;;;;;;;;;;5076628;28;20454;-80
2022/05/01 05:55:41;;;;;;;48.80;27.63;;;;;;;;;;5076629;28;20440;-81
2022/05/01 05:58:07;;;;;;;43.50;28.83;;;;;;;;;;5059519;28;20461;-81
2022/05/01 06:00:33;;;;;;;41.30;30.20;;;;;;;;;;5075607;28;20453;-81
2022/05/01 06:02:59;;;;;;;41.07;29.23;;;;;;;;;;5069647;28;20405;-81
2022/05/01 06:05:26;;;;;;;38.60;28.27;;;;;;;;;;5069638;28;20500;-81
2022/05/01 06:07:52;;;;;;;44.07;29.57;;;;;;;;;;5051618;28;20600;-81
2022/05/01 06:10:18;;;;;;;37.37;26.10;;;;;;;;;;5070899;28;20405;-80
2022/05/01 06:12:44;;;;;;;49.73;28.10;;;;;;;;;;5070011;28;20402;-81
2022/05/01 06:15:11;;;;;;;37.23;26.00;;;;;;;;;;5051794;28;20432;-81
2022/05/01 06:17:38;;;;;;;40.27;28.13;;;;;;;;;;5068448;28;20464;-81
2022/05/01 06:20:04;;;;;;;37.97;27.73;;;;;;;;;;5069990;28;20401;-81
2022/05/01 06:22:30;;;;;;;46.00;28.33;;;;;;;;;;5069480;28;20405;-81
2022/05/01 06:24:56;;;;;;;41.37;27.83;;;;;;;;;;5068739;28;20464;-80
2022/05/01 06:27:22;;;;;;;43.93;27.97;;;;;;;;;;5068402;28;20457;-81
2022/05/01 06:29:48;;;;;;;39.80;27.33;;;;;;;;;;5051048;28;20416;-81
2022/05/01 06:32:19;;;;;;;39.83;28.50;;;;;;;;;;5051188;28;20413;-81
2022/05/01 06:34:46;;;;;;;37.47;26.93;;;;;;;;;;5068791;28;20498;-81
2022/05/01 06:37:12;;;;;;;37.87;27.73;;;;;;;;;;5070280;28;20401;-81
2022/05/01 06:39:38;;;;;;;33.80;25.20;;;;;;;;;;5072511;28;20406;-81
2022/05/01 06:42:05;;;;;;;43.10;26.07;;;;;;;;;;5071836;28;20436;-82
2022/05/01 06:44:31;;;;;;;37.83;26.53;;;;;;;;;;5069267;28;20398;-82
2022/05/01 06:46:57;;;;;;;39.93;28.27;;;;;;;;;;5069898;28;20410;-81
2022/05/01 06:49:23;;;;;;;35.73;27.80;;;;;;;;;;5069435;28;20409;-81
2022/05/01 06:51:49;;;;;;;35.80;25.33;;;;;;;;;;5068554;28;20436;-81
2022/05/01 06:54:15;;;;;;;41.70;25.93;;;;;;;;;;5069097;28;20414;-82
2022/05/01 06:56:44;;;;;;;38.00;25.30;;;;;;;;;;5068826;28;20428;-81
2022/05/01 06:59:10;;;;;;;39.20;26.93;;;;;;;;;;5071962;28;20449;-81
2022/05/01 07:01:36;;;;;;;33.40;24.40;;;;;;;;;;5072360;28;20397;-81
2022/05/01 07:04:02;;;;;;;36.90;24.87;;;;;;;;;;5072441;28;20416;-82
2022/05/01 07:06:28;;;;;;;38.03;28.00;;;;;;;;;;5072369;28;20413;-81
2022/05/01 07:08:54;;;;;;;38.87;25.90;;;;;;;;;;5054672;28;20398;-82
2022/05/01 07:11:20;;;;;;;38.43;27.63;;;;;;;;;;5072471;28;20409;-82
2022/05/01 07:13:46;;;;;;;35.13;26.23;;;;;;;;;;5054203;28;20432;-81
2022/05/01 07:16:12;;;;;;;35.77;23.60;;;;;;;;;;5071969;28;20444;-81
2022/05/01 07:18:38;;;;;;;40.27;29.53;;;;;;;;;;5066350;28;20552;-82
2022/05/01 07:21:04;;;;;;;46.93;28.10;;;;;;;;;;5065557;28;20412;-81
2022/05/01 07:23:31;;;;;;;48.70;29.43;;;;;;;;;;5067705;28;20405;-81
2022/05/01 07:25:57;;;;;;;43.00;29.33;;;;;;;;;;5065972;28;20445;-81
2022/05/01 07:28:23;;;;;;;39.37;27.53;;;;;;;;;;5053533;28;20409;-81
2022/05/01 07:30:49;;;;;;;40.43;26.53;;;;;;;;;;5067187;28;20401;-81
2022/05/01 07:33:15;;;;;;;36.07;27.70;;;;;;;;;;5066242;28;20405;-81
2022/05/01 07:35:41;;;;;;;37.00;27.30;;;;;;;;;;5066983;28;20459;-81
2022/05/01 07:38:07;;;;;;;38.27;26.13;;;;;;;;;;5067210;28;20453;-81
2022/05/01 07:40:33;;;;;;;34.70;24.00;;;;;;;;;;5069873;28;20420;-82
2022/05/01 07:42:59;;;;;;;35.63;25.87;;;;;;;;;;5069889;28;20405;-81
2022/05/01 07:45:26;;;;;;;41.27;28.83;;;;;;;;;;5053838;28;20425;-81
2022/05/01 07:47:52;;;;;;;35.27;25.03;;;;;;;;;;5071174;28;20474;-81
2022/05/01 07:50:18;;;;;;;37.07;25.13;;;;;;;;;;5071891;28;20398;-81
2022/05/01 07:52:44;;;;;;;45.33;31.30;;;;;;;;;;5071607;28;20401;-81
2022/05/01 07:55:10;;;;;;;42.17;28.47;;;;;;;;;;5071538;28;20426;-81
2022/05/01 07:57:36;;;;;;;37.87;25.40;;;;;;;;;;5071388;28;20459;-81
2022/05/01 08:00:03;;;;;;;46.17;29.17;;;;;;;;;;5071672;28;20394;-81
2022/05/01 08:04:27;;;;;;;42.70;28.10;;;;;;;;;;5071584;28;20405;-81
2022/05/01 08:05:23;;;;;;;42.03;28.00;;;;;;;;;;5070781;28;20777;-81
2022/05/01 08:07:49;;;;;;;43.10;29.13;;;;;;;;;;5070387;28;20416;-81
2022/05/01 08:10:15;;;;;;;42.23;27.47;;;;;;;;;;5070416;28;20467;-81
2022/05/01 08:12:41;;;;;;;45.00;29.53;;;;;;;;;;5070779;28;20587;-81
2022/05/01 08:15:08;;;;;;;44.40;30.40;;;;;;;;;;5070196;28;20448;-81
2022/05/01 08:17:34;;;;;;;43.33;28.10;;;;;;;;;;5053440;28;20453;-81
2022/05/01 08:22:45;;;;;;;42.20;28.97;;;;;;;;;;5073079;28;20385;-80
2022/05/01 08:25:12;;;;;;;43.90;29.43;;;;;;;;;;5073453;28;20452;-81
2022/05/01 08:27:41;;;;;;;44.77;28.90;;;;;;;;;;5088883;22;20561;-83
2022/05/01 08:30:07;;;;;;;41.17;27.37;;;;;;;;;;5081653;28;20413;-86
2022/05/01 08:32:33;;;;;;;42.53;26.50;;;;;;;;;;5063720;28;20400;-83
2022/05/01 08:34:59;;;;;;;42.60;28.40;;;;;;;;;;5081730;28;20900;-84
2022/05/01 08:37:25;;;;;;;40.00;27.47;;;;;;;;;;5070655;28;20462;-83
2022/05/01 08:39:51;;;;;;;36.67;25.37;;;;;;;;;;5056205;28;20423;-83
2022/05/01 08:42:17;;;;;;;39.87;27.47;;;;;;;;;;5080553;28;20852;-82
2022/05/01 08:44:45;;;;;;;38.83;27.23;;;;;;;;;;5069806;28;20902;-83
2022/05/01 08:47:11;;;;;;;38.17;27.00;;;;;;;;;;5076519;28;20455;-85
2022/05/01 08:49:38;;;;;;;45.73;28.90;;;;;;;;;;5064876;28;20782;-84
2022/05/01 08:52:06;;;;;;;39.07;26.00;;;;;;;;;;5046874;28;20410;-82
2022/05/01 08:54:33;;;;;;;35.80;25.60;;;;;;;;;;5064652;28;20421;-84
2022/05/01 08:56:59;;;;;;;38.87;26.40;;;;;;;;;;5060463;28;20555;-85
2022/05/01 08:59:26;;;;;;;36.50;25.03;;;;;;;;;;5067208;28;20497;-84
2022/05/01 09:01:53;;;;;;;35.57;25.43;;;;;;;;;;5085023;28;20923;-84
2022/05/01 09:04:19;;;;;;;39.17;28.50;;;;;;;;;;5066867;28;20496;-84
2022/05/01 09:06:46;;;;;;;43.20;28.60;;;;;;;;;;5085475;28;20427;-86
2022/05/01 09:09:17;;;;;;;50.30;30.33;;;;;;;;;;5084176;28;20538;-85
2022/05/01 09:14:28;;;;;;;39.33;27.83;;;;;;;;;;5084078;28;20485;-85
2022/05/01 09:17:13;;;;;;;42.63;27.63;;;;;;;;;;5083919;28;20427;-85
2022/05/01 09:19:39;;;;;;;46.80;29.40;;;;;;;;;;5083701;28;20489;-85
2022/05/01 09:22:05;;;;;;;37.90;27.73;;;;;;;;;;5086198;28;20400;-85
2022/05/01 09:24:31;;;;;;;36.20;25.53;;;;;;;;;;5084650;28;20418;-85
2022/05/01 09:26:59;;;;;;;36.90;25.57;;;;;;;;;;5063842;28;20460;-84
2022/05/01 09:29:26;;;;;;;39.23;24.57;;;;;;;;;;5078226;28;20465;-84
2022/05/01 09:31:55;;;;;;;31.90;24.70;;;;;;;;;;5061415;28;20499;-82
2022/05/01 09:34:23;;;;;;;37.13;25.97;;;;;;;;;;5063817;28;20416;-83
2022/05/01 09:36:49;;;;;;;35.77;23.90;;;;;;;;;;5079985;28;20420;-83
2022/05/01 09:39:19;;;;;;;43.03;24.53;;;;;;;;;;5080485;28;20551;-83
2022/05/01 09:41:45;;;;;;;31.87;23.73;;;;;;;;;;5081411;28;20499;-83
2022/05/01 09:44:15;;;;;;;32.63;24.40;;;;;;;;;;5081387;28;20401;-84
2022/05/01 09:46:43;;;;;;;34.93;24.37;;;;;;;;;;5082320;28;20417;-84
2022/05/01 09:49:13;;;;;;;31.77;23.07;;;;;;;;;;5082135;28;20404;-83
2022/05/01 09:52:00;;;;;;;32.50;24.60;;;;;;;;;;5065943;28;20413;-85
2022/05/01 09:54:26;;;;;;;32.40;23.87;;;;;;;;;;5066598;28;20424;-86
2022/05/01 09:56:59;;;;;;;30.23;22.63;;;;;;;;;;5086152;28;20792;-84
2022/05/01 09:59:27;;;;;;;33.67;23.40;;;;;;;;;;5092879;28;20472;-84
2022/05/01 10:02:03;;;;;;;34.63;24.40;;;;;;;;;;5068089;28;20492;-85
2022/05/01 10:04:30;;;;;;;28.97;23.00;;;;;;;;;;5084207;28;20934;-85
2022/05/01 10:06:57;;;;;;;31.10;23.90;;;;;;;;;;5067769;28;20436;-84
2022/05/01 10:09:27;;;;;;;30.90;23.50;;;;;;;;;;5069118;28;20539;-85
2022/05/01 10:11:55;;;;;;;30.70;24.10;;;;;;;;;;5086888;28;20381;-85
2022/05/01 10:14:21;;;;;;;31.93;23.93;;;;;;;;;;5086083;28;20452;-84
2022/05/01 10:16:48;;;;;;;26.90;21.63;;;;;;;;;;5067986;28;20433;-83
2022/05/01 10:19:18;;;;;;;31.63;23.03;;;;;;;;;;5086254;28;20453;-85
2022/05/01 10:22:03;;;;;;;28.27;22.00;;;;;;;;;;5067875;28;20436;-86
2022/05/01 10:24:29;;;;;;;25.77;19.60;;;;;;;;;;5086849;28;20479;-85
2022/05/01 10:26:55;;;;;;;26.27;20.63;;;;;;;;;;5086556;28;20521;-85
2022/05/01 10:29:40;;;;;;;27.27;20.27;;;;;;;;;;5068127;28;20462;-85
2022/05/01 10:32:22;;;;;;;30.20;21.73;;;;;;;;;;5067558;28;20409;-85
2022/05/01 10:34:57;;;;;;;24.80;20.87;;;;;;;;;;5067825;28;20461;-84
2022/05/01 10:37:32;;;;;;;26.50;20.50;;;;;;;;;;5067199;28;20432;-84
2022/05/01 10:40:01;;;;;;;26.63;21.20;;;;;;;;;;5085516;28;20456;-84
2022/05/01 10:42:38;;;;;;;32.27;21.77;;;;;;;;;;5068282;28;20459;-85
2022/05/01 10:45:25;;;;;;;29.20;22.60;;;;;;;;;;5084839;28;20412;-85
2022/05/01 10:47:52;;;;;;;30.37;21.70;;;;;;;;;;5087714;28;20416;-84
2022/05/01 10:50:22;;;;;;;29.40;21.60;;;;;;;;;;5090863;28;20385;-83
2022/05/01 10:53:05;;;;;;;26.20;21.47;;;;;;;;;;5092538;28;20416;-83
2022/05/01 10:56:01;;;;;;;25.27;20.93;;;;;;;;;;5089292;28;20464;-85
2022/05/01 10:58:30;;;;;;;29.90;21.27;;;;;;;;;;5065056;28;20463;-85
2022/05/01 11:00:56;;;;;;;29.07;22.90;;;;;;;;;;5085370;28;20942;-85
2022/05/01 11:03:36;;;;;;;28.73;21.37;;;;;;;;;;5083601;28;20837;-85
2022/05/01 11:06:02;;;;;;;27.90;20.77;;;;;;;;;;5081815;28;20393;-83
2022/05/01 11:08:31;;;;;;;23.67;20.80;;;;;;;;;;5081506;28;20812;-84
2022/05/01 11:10:59;;;;;;;24.07;19.67;;;;;;;;;;5080273;28;20409;-84
2022/05/01 11:13:28;;;;;;;26.70;19.93;;;;;;;;;;5080206;28;20401;-83
2022/05/01 11:15:55;;;;;;;26.67;22.43;;;;;;;;;;5080304;28;20412;-83
2022/05/01 11:18:34;;;;;;;20.93;18.60;;;;;;;;;;5062641;28;20452;-83
2022/05/01 11:21:19;;;;;;;26.10;21.30;;;;;;;;;;5081183;28;20431;-83
2022/05/01 11:23:45;;;;;;;25.00;20.27;;;;;;;;;;5082080;28;20899;-84
2022/05/01 11:26:13;;;;;;;23.20;19.63;;;;;;;;;;5064529;28;20967;-84
2022/05/01 11:28:42;;;;;;;22.23;19.20;;;;;;;;;;5063868;28;20442;-84
2022/05/01 11:31:27;;;;;;;26.33;21.33;;;;;;;;;;5082417;28;20892;-85
2022/05/01 11:34:12;;;;;;;24.27;19.83;;;;;;;;;;5064996;28;20416;-84
2022/05/01 11:36:54;;;;;;;23.50;18.83;;;;;;;;;;5067395;28;20424;-84
2022/05/01 11:39:43;;;;;;;21.80;17.43;;;;;;;;;;5086014;28;20524;-85
2022/05/01 11:42:25;;;;;;;18.97;16.93;;;;;;;;;;5068433;28;20405;-85
2022/05/01 11:44:55;;;;;;;21.73;18.43;;;;;;;;;;5071677;28;20408;-85
2022/05/01 11:47:22;;;;;;;20.60;18.40;;;;;;;;;;5070135;28;20424;-85
2022/05/01 11:49:48;;;;;;;21.40;17.50;;;;;;;;;;5087625;28;20423;-85
2022/05/01 11:52:16;;;;;;;20.60;18.13;;;;;;;;;;5088268;28;20396;-85
2022/05/01 11:54:47;;;;;;;19.30;16.70;;;;;;;;;;5088175;28;20726;-84
2022/05/01 12:02:47;;;;;;;17.40;15.60;;;;;;;;;;5088263;28;20805;-84
2022/05/01 12:05:18;;;;;;;17.53;14.40;;;;;;;;;;5069570;28;20954;-85
2022/05/01 12:07:44;;;;;;;19.40;15.40;;;;;;;;;;5069806;28;20955;-85
2022/05/01 12:10:12;;;;;;;17.30;14.60;;;;;;;;;;5088025;28;20432;-85
2022/05/01 12:12:38;;;;;;;20.07;16.60;;;;;;;;;;5086979;28;20411;-84
2022/05/01 12:15:06;;;;;;;20.70;17.33;;;;;;;;;;5087559;28;20771;-85
2022/05/01 12:17:39;;;;;;;20.07;17.40;;;;;;;;;;5090357;28;20448;-85
2022/05/01 12:20:05;;;;;;;18.20;16.07;;;;;;;;;;5091960;28;20405;-85
2022/05/01 12:22:37;;;;;;;22.00;16.50;;;;;;;;;;5089488;28;20432;-85
2022/05/01 12:25:04;;;;;;;20.67;15.00;;;;;;;;;;5088869;28;20452;-85
2022/05/01 12:27:30;;;;;;;15.53;13.03;;;;;;;;;;5070751;28;20456;-85
2022/05/01 12:29:56;;;;;;;21.20;16.40;;;;;;;;;;5070685;28;20413;-84
2022/05/01 12:32:24;;;;;;;14.50;13.00;;;;;;;;;;5088081;28;20416;-84
2022/05/01 12:34:50;;;;;;;20.87;15.53;;;;;;;;;;5087079;28;20404;-83
2022/05/01 12:37:17;;;;;;;17.57;14.77;;;;;;;;;;5087021;28;20954;-83
2022/05/01 12:39:43;;;;;;;18.10;15.33;;;;;;;;;;5087922;28;20403;-85
2022/05/01 12:45:04;;;;;;;16.47;14.07;;;;;;;;;;5086348;28;20373;-83
2022/05/01 12:47:34;;;;;;;18.43;15.03;;;;;;;;;;5064197;28;20417;-85
2022/05/01 12:50:00;;;;;;;17.47;15.57;;;;;;;;;;5066786;28;20405;-83
2022/05/01 12:52:39;;;;;;;17.80;14.50;;;;;;;;;;5083433;28;20427;-85
2022/05/01 12:55:14;;;;;;;16.07;12.63;;;;;;;;;;5084743;28;20385;-83
2022/05/01 12:57:40;;;;;;;13.43;12.00;;;;;;;;;;5084730;28;20457;-84
2022/05/01 13:00:07;;;;;;;14.97;13.10;;;;;;;;;;5090698;28;20408;-84
2022/05/01 13:02:33;;;;;;;14.37;12.83;;;;;;;;;;5069899;28;20432;-85
2022/05/01 13:05:03;;;;;;;17.37;13.90;;;;;;;;;;5088076;28;20465;-85
2022/05/01 13:07:29;;;;;;;17.20;13.00;;;;;;;;;;5087491;28;20450;-86
2022/05/01 13:09:56;;;;;;;16.00;12.67;;;;;;;;;;5088114;28;20519;-86
2022/05/01 13:12:32;;;;;;;12.97;11.57;;;;;;;;;;5088582;28;20455;-84
2022/05/01 13:15:02;;;;;;;15.40;12.80;;;;;;;;;;5087502;28;20428;-86
2022/05/01 13:17:28;;;;;;;15.60;13.33;;;;;;;;;;5088428;28;20492;-84
2022/05/01 13:19:55;;;;;;;15.83;13.13;;;;;;;;;;5088629;28;20408;-84
2022/05/01 13:22:21;;;;;;;15.67;13.40;;;;;;;;;;5070992;28;20408;-85
2022/05/01 13:24:52;;;;;;;18.67;14.23;;;;;;;;;;5069852;28;20466;-86
2022/05/01 13:27:18;;;;;;;16.50;14.37;;;;;;;;;;5093040;28;20443;-85
2022/05/01 13:29:44;;;;;;;15.03;12.77;;;;;;;;;;5088477;28;20397;-84
2022/05/01 13:32:11;;;;;;;17.53;15.63;;;;;;;;;;5087876;28;20416;-86
2022/05/01 13:34:42;;;;;;;20.47;14.97;;;;;;;;;;5086241;28;20400;-85
2022/05/01 13:37:10;;;;;;;18.27;15.47;;;;;;;;;;5085808;28;20857;-84
2022/05/01 13:45:05;;;;;;;19.97;16.37;;;;;;;;;;5084344;28;20407;-86
2022/05/01 13:47:32;;;;;;;17.97;16.07;;;;;;;;;;5085475;28;20427;-85
2022/05/01 13:49:58;;;;;;;20.43;18.27;;;;;;;;;;5068100;28;20742;-86
2022/05/01 13:52:24;;;;;;;23.53;18.30;;;;;;;;;;5083907;28;20482;-85
2022/05/01 13:54:51;;;;;;;21.40;18.60;;;;;;;;;;5066366;28;20416;-84
2022/05/01 13:57:19;;;;;;;22.03;17.50;;;;;;;;;;5084490;28;20966;-84
2022/05/01 13:59:46;;;;;;;22.73;18.57;;;;;;;;;;5084872;28;20413;-83
2022/05/01 14:02:12;;;;;;;20.87;17.50;;;;;;;;;;5083629;28;20405;-86
2022/05/01 14:04:38;;;;;;;22.80;18.50;;;;;;;;;;5083390;28;20397;-86
2022/05/01 14:07:04;;;;;;;19.53;16.30;;;;;;;;;;5083279;28;20416;-86
2022/05/01 14:09:30;;;;;;;19.30;16.83;;;;;;;;;;5083702;28;20408;-85
2022/05/01 14:11:57;;;;;;;17.43;14.70;;;;;;;;;;5083577;28;20412;-84
2022/05/01 14:14:24;;;;;;;21.07;17.07;;;;;;;;;;5083225;28;20401;-85
2022/05/01 14:16:51;;;;;;;18.43;14.93;;;;;;;;;;5083359;28;20428;-85
2022/05/01 14:19:21;;;;;;;19.23;16.23;;;;;;;;;;5066085;28;20800;-85
2022/05/01 14:21:48;;;;;;;25.53;17.00;;;;;;;;;;5066406;28;20412;-85
2022/05/01 14:24:15;;;;;;;19.30;16.00;;;;;;;;;;5066462;28;20427;-83
2022/05/01 14:26:41;;;;;;;19.20;16.80;;;;;;;;;;5083069;28;20456;-84
2022/05/01 14:29:07;;;;;;;21.73;15.90;;;;;;;;;;5087738;22;20485;-85
2022/05/01 14:31:38;;;;;;;18.70;15.53;;;;;;;;;;5079972;28;20404;-86
2022/05/01 14:34:15;;;;;;;18.67;15.57;;;;;;;;;;5062795;28;20436;-85
2022/05/01 14:36:43;;;;;;;17.63;14.83;;;;;;;;;;5081624;28;20411;-85
2022/05/01 14:39:13;;;;;;;17.90;15.63;;;;;;;;;;5079587;28;20478;-85
2022/05/01 14:41:44;;;;;;;17.80;15.23;;;;;;;;;;5082617;28;20409;-86
2022/05/01 14:44:11;;;;;;;17.97;15.67;;;;;;;;;;5079953;28;20408;-85
2022/05/01 14:46:45;;;;;;;23.67;14.63;;;;;;;;;;5080154;28;20802;-84
2022/05/01 14:49:11;;;;;;;20.33;16.40;;;;;;;;;;5079358;28;20968;-85
2022/05/01 14:51:40;;;;;;;17.20;14.90;;;;;;;;;;5079134;28;20797;-86
2022/05/01 14:54:07;;;;;;;18.50;15.73;;;;;;;;;;5079644;28;20409;-86
2022/05/01 14:56:34;;;;;;;16.80;14.67;;;;;;;;;;5081188;28;20409;-85
2022/05/01 15:07:17;;;;;;;15.93;13.13;;;;;;;;;;5085466;28;20395;-83